createdAt,value
2022-12-26T00:01:00.880Z,13.70
2022-12-26T00:03:02.651Z,13.70
2022-12-26T00:05:04.650Z,13.80
2022-12-26T00:07:06.372Z,13.80
2022-12-26T00:09:08.398Z,13.80
2022-12-26T00:11:10.948Z,13.80
2022-12-26T00:13:40.431Z,13.80
2022-12-26T00:15:34.284Z,13.80
2022-12-26T00:17:35.986Z,13.80
2022-12-26T00:19:37.978Z,13.80
2022-12-26T00:21:39.700Z,13.80
2022-12-26T00:23:43.476Z,13.80
2022-12-26T00:25:45.122Z,13.80
2022-12-26T00:27:46.727Z,13.80
2022-12-26T00:29:50.555Z,13.80
2022-12-26T00:31:52.281Z,13.80
2022-12-26T00:33:54.324Z,13.80
2022-12-26T00:36:01.433Z,13.80
2022-12-26T00:38:03.082Z,13.90
2022-12-26T00:40:05.472Z,13.80
2022-12-26T00:42:07.145Z,13.80
2022-12-26T00:44:08.839Z,13.80
2022-12-26T00:46:10.793Z,13.80
2022-12-26T00:48:12.476Z,13.80
2022-12-26T00:50:16.314Z,13.80
2022-12-26T00:52:18.140Z,13.80
2022-12-26T00:54:19.809Z,13.80
2022-12-26T00:56:21.540Z,13.80
2022-12-26T00:58:26.260Z,13.80
2022-12-26T01:00:28.356Z,13.80
2022-12-26T01:02:42.185Z,13.80
2022-12-26T01:04:46.559Z,13.80
2022-12-26T01:06:50.872Z,13.90
2022-12-26T01:08:53.590Z,13.90
2022-12-26T01:10:55.291Z,13.80
2022-12-26T01:12:57.077Z,13.80
2022-12-26T01:15:00.468Z,13.80
2022-12-26T01:17:02.170Z,13.80
2022-12-26T01:19:09.583Z,13.90
2022-12-26T01:21:11.297Z,13.80
2022-12-26T01:23:16.208Z,13.80
2022-12-26T01:25:18.295Z,13.90
2022-12-26T01:27:20.054Z,13.90
2022-12-26T01:29:21.854Z,14.00
2022-12-26T01:31:24.196Z,13.90
2022-12-26T01:33:25.835Z,13.90
2022-12-26T01:35:27.519Z,14.00
2022-12-26T01:37:29.150Z,14.00
2022-12-26T01:39:33.870Z,14.00
2022-12-26T01:41:36.216Z,14.00
2022-12-26T01:43:54.120Z,13.90
2022-12-26T01:45:55.992Z,14.00
2022-12-26T01:48:05.662Z,14.00
2022-12-26T01:50:19.467Z,14.00
2022-12-26T01:52:48.900Z,14.00
2022-12-26T01:54:52.387Z,14.00
2022-12-26T01:56:56.245Z,14.00
2022-12-26T01:59:06.570Z,13.90
2022-12-26T02:04:23.296Z,14.00
2022-12-26T02:06:27.374Z,13.90
2022-12-26T02:08:34.483Z,14.00
2022-12-26T02:10:44.004Z,13.90
2022-12-26T02:12:48.229Z,14.00
2022-12-26T02:14:50.421Z,14.00
2022-12-26T02:16:52.194Z,14.00
2022-12-26T02:18:53.898Z,14.00
2022-12-26T02:21:15.283Z,14.00
2022-12-26T02:24:01.448Z,14.00
2022-12-26T02:26:27.824Z,14.00
2022-12-26T02:28:53.288Z,14.00
2022-12-26T02:31:33.913Z,14.00
2022-12-26T02:33:41.713Z,14.00
2022-12-26T02:36:23.090Z,14.00
2022-12-26T02:38:41.588Z,14.00
2022-12-26T02:41:04.262Z,14.00
2022-12-26T02:43:43.628Z,14.00
2022-12-26T02:46:39.262Z,14.00
2022-12-26T02:49:17.692Z,14.00
2022-12-26T02:51:54.620Z,14.00
2022-12-26T02:54:44.807Z,13.90
2022-12-26T02:57:10.375Z,14.00
2022-12-26T02:59:56.424Z,14.00
2022-12-26T03:02:22.596Z,14.00
2022-12-26T03:04:46.070Z,13.90
2022-12-26T03:07:17.982Z,13.90
2022-12-26T03:09:51.705Z,14.00
2022-12-26T03:12:18.582Z,13.90
2022-12-26T03:14:27.781Z,13.90
2022-12-26T03:16:49.942Z,13.80
2022-12-26T03:19:00.993Z,13.80
2022-12-26T03:21:07.041Z,13.80
2022-12-26T03:23:13.514Z,13.80
2022-12-26T03:25:39.191Z,13.80
2022-12-26T03:27:41.056Z,13.80
2022-12-26T03:30:01.528Z,13.80
2022-12-26T03:32:07.080Z,13.80
2022-12-26T03:34:18.422Z,13.80
2022-12-26T03:36:29.164Z,13.80
2022-12-26T03:39:08.994Z,13.80
2022-12-26T03:41:39.923Z,13.80
2022-12-26T03:44:27.747Z,13.70
2022-12-26T03:47:17.003Z,13.80
2022-12-26T03:49:59.937Z,13.70
2022-12-26T03:52:27.220Z,13.70
2022-12-26T03:55:00.000Z,13.70
2022-12-26T03:57:28.002Z,13.60
2022-12-26T03:59:57.128Z,13.70
2022-12-26T04:02:23.331Z,13.60
2022-12-26T04:04:48.847Z,13.60
2022-12-26T04:07:23.243Z,13.50
2022-12-26T04:09:56.142Z,13.60
2022-12-26T04:12:19.851Z,13.60
2022-12-26T04:15:05.233Z,13.50
2022-12-26T04:17:57.863Z,13.60
2022-12-26T04:20:22.378Z,13.60
2022-12-26T04:22:56.153Z,13.60
2022-12-26T04:25:50.475Z,13.70
2022-12-26T04:28:12.197Z,13.70
2022-12-26T04:30:33.990Z,13.70
2022-12-26T04:33:04.647Z,13.70
2022-12-26T04:35:31.050Z,13.70
2022-12-26T04:37:53.754Z,13.70
2022-12-26T04:40:15.873Z,13.70
2022-12-26T04:42:38.655Z,13.70
2022-12-26T04:44:40.966Z,13.70
2022-12-26T04:46:47.574Z,13.70
2022-12-26T04:49:10.946Z,13.70
2022-12-26T04:51:12.612Z,13.70
2022-12-26T04:53:15.205Z,13.70
2022-12-26T04:55:17.949Z,13.70
2022-12-26T04:57:19.854Z,13.70
2022-12-26T04:59:22.419Z,13.70
2022-12-26T05:01:45.253Z,13.70
2022-12-26T05:04:08.352Z,13.70
2022-12-26T05:06:28.732Z,13.70
2022-12-26T05:08:59.175Z,13.70
2022-12-26T05:11:00.918Z,13.70
2022-12-26T05:13:04.204Z,13.70
2022-12-26T05:15:06.313Z,13.70
2022-12-26T05:17:27.188Z,13.70
2022-12-26T05:19:47.238Z,13.70
2022-12-26T05:22:09.905Z,13.70
2022-12-26T05:24:30.912Z,13.70
2022-12-26T05:26:52.484Z,13.70
2022-12-26T05:29:00.037Z,13.70
2022-12-26T05:31:02.763Z,13.70
2022-12-26T05:33:22.966Z,13.60
2022-12-26T05:35:24.891Z,13.70
2022-12-26T05:37:26.659Z,13.60
2022-12-26T05:39:30.459Z,13.60
2022-12-26T05:41:32.238Z,13.70
2022-12-26T05:43:34.114Z,13.70
2022-12-26T05:45:35.866Z,13.60
2022-12-26T05:47:37.649Z,13.60
2022-12-26T05:49:39.406Z,13.60
2022-12-26T05:51:41.221Z,13.70
2022-12-26T05:53:45.392Z,13.60
2022-12-26T05:55:47.052Z,13.60
2022-12-26T05:57:48.694Z,13.60
2022-12-26T05:59:52.272Z,13.60
2022-12-26T06:01:54.076Z,13.60
2022-12-26T06:03:58.012Z,13.40
2022-12-26T06:05:59.852Z,13.40
2022-12-26T06:08:03.968Z,13.30
2022-12-26T06:10:09.108Z,13.40
2022-12-26T06:12:11.819Z,13.40
2022-12-26T06:14:13.476Z,13.40
2022-12-26T06:16:17.713Z,13.40
2022-12-26T06:18:21.040Z,13.40
2022-12-26T06:20:22.694Z,13.30
2022-12-26T06:22:24.469Z,13.30
2022-12-26T06:24:28.380Z,13.30
2022-12-26T06:26:30.069Z,13.30
2022-12-26T06:28:33.453Z,13.30
2022-12-26T06:30:35.222Z,13.30
2022-12-26T06:32:39.780Z,13.30
2022-12-26T06:34:41.456Z,13.30
2022-12-26T06:36:43.066Z,13.20
2022-12-26T06:38:45.709Z,13.30
2022-12-26T06:40:47.346Z,13.30
2022-12-26T06:42:54.113Z,13.20
2022-12-26T06:44:56.910Z,13.20
2022-12-26T06:46:58.846Z,13.20
2022-12-26T06:49:02.274Z,13.20
2022-12-26T06:51:05.568Z,13.10
2022-12-26T06:53:07.546Z,13.10
2022-12-26T06:55:11.583Z,13.10
2022-12-26T06:57:13.605Z,13.10
2022-12-26T06:59:18.108Z,13.00
2022-12-26T07:01:23.165Z,13.10
2022-12-26T07:03:26.258Z,13.10
2022-12-26T07:05:28.120Z,13.00
2022-12-26T07:07:29.785Z,13.00
2022-12-26T07:09:34.464Z,13.00
2022-12-26T07:11:38.532Z,13.00
2022-12-26T07:13:40.514Z,13.00
2022-12-26T07:15:42.182Z,12.90
2022-12-26T07:17:43.937Z,12.90
2022-12-26T07:19:45.656Z,12.90
2022-12-26T07:21:49.628Z,12.90
2022-12-26T07:23:51.445Z,13.00
2022-12-26T07:25:57.730Z,13.00
2022-12-26T07:28:00.475Z,12.90
2022-12-26T07:30:03.531Z,12.90
2022-12-26T07:32:05.825Z,12.90
2022-12-26T07:34:08.130Z,12.90
2022-12-26T07:36:09.980Z,12.90
2022-12-26T07:38:12.765Z,12.80
2022-12-26T07:40:14.488Z,12.80
2022-12-26T07:42:16.166Z,12.80
2022-12-26T07:44:17.825Z,12.80
2022-12-26T07:46:19.623Z,12.80
2022-12-26T07:48:21.361Z,12.80
2022-12-26T07:50:24.421Z,12.80
2022-12-26T07:52:31.374Z,12.80
2022-12-26T07:54:33.247Z,12.80
2022-12-26T07:56:35.336Z,12.80
2022-12-26T07:58:37.081Z,12.80
2022-12-26T08:00:38.772Z,12.80
2022-12-26T08:02:40.609Z,12.80
2022-12-26T08:04:45.306Z,12.80
2022-12-26T08:06:49.535Z,12.80
2022-12-26T08:08:52.383Z,12.80
2022-12-26T08:11:01.593Z,12.80
2022-12-26T08:13:05.518Z,12.80
2022-12-26T08:15:09.997Z,12.80
2022-12-26T08:17:11.700Z,12.80
2022-12-26T08:19:13.494Z,12.80
2022-12-26T08:21:15.620Z,12.70
2022-12-26T08:23:17.536Z,12.70
2022-12-26T08:25:21.954Z,12.70
2022-12-26T08:27:23.953Z,12.70
2022-12-26T08:29:25.749Z,12.70
2022-12-26T08:31:29.894Z,12.70
2022-12-26T08:33:31.685Z,12.70
2022-12-26T08:35:34.933Z,12.70
2022-12-26T08:37:36.665Z,12.70
2022-12-26T08:39:38.309Z,12.70
2022-12-26T08:41:40.022Z,12.70
2022-12-26T08:44:24.917Z,12.70
2022-12-26T08:46:09.230Z,12.70
2022-12-26T08:48:15.284Z,12.80
2022-12-26T08:50:17.575Z,12.70
2022-12-26T08:52:19.346Z,12.80
2022-12-26T08:54:21.157Z,12.80
2022-12-26T08:56:25.625Z,12.80
2022-12-26T08:58:28.448Z,12.80
2022-12-26T09:00:30.133Z,12.80
2022-12-26T09:02:35.516Z,12.80
2022-12-26T09:04:37.392Z,12.80
2022-12-26T09:06:41.809Z,12.80
2022-12-26T09:08:43.794Z,12.80
2022-12-26T09:10:47.970Z,12.80
2022-12-26T09:12:49.979Z,12.80
2022-12-26T09:14:52.076Z,12.90
2022-12-26T09:16:54.349Z,12.80
2022-12-26T09:18:58.721Z,12.80
2022-12-26T09:21:05.361Z,12.90
2022-12-26T09:23:10.775Z,12.90
2022-12-26T09:25:13.703Z,12.90
2022-12-26T09:27:19.848Z,12.90
2022-12-26T09:29:21.547Z,12.90
2022-12-26T09:31:25.796Z,12.90
2022-12-26T09:33:27.735Z,12.90
2022-12-26T09:35:32.206Z,12.90
2022-12-26T09:37:36.017Z,12.90
2022-12-26T09:39:37.751Z,13.00
2022-12-26T09:41:45.519Z,13.00
2022-12-26T09:44:03.920Z,13.00
2022-12-26T09:46:17.895Z,13.00
2022-12-26T09:48:31.201Z,13.10
2022-12-26T09:50:43.019Z,13.10
2022-12-26T09:52:58.149Z,13.10
2022-12-26T09:55:04.677Z,13.10
2022-12-26T09:57:15.389Z,13.10
2022-12-26T09:59:21.338Z,13.10
2022-12-26T10:01:29.820Z,13.10
2022-12-26T10:03:43.210Z,13.20
2022-12-26T10:06:05.721Z,13.10
2022-12-26T10:08:37.746Z,13.20
2022-12-26T10:11:05.883Z,13.20
2022-12-26T10:13:45.217Z,13.20
2022-12-26T10:15:57.860Z,13.20
2022-12-26T10:18:20.699Z,13.20
2022-12-26T10:20:57.174Z,13.20
2022-12-26T10:23:56.377Z,13.20
2022-12-26T10:26:39.509Z,13.10
2022-12-26T10:28:44.398Z,13.20
2022-12-26T10:30:47.360Z,13.10
2022-12-26T10:32:58.182Z,13.10
2022-12-26T10:35:05.760Z,13.10
2022-12-26T10:37:37.807Z,13.30
2022-12-26T10:39:45.944Z,13.10
2022-12-26T10:41:51.755Z,13.10
2022-12-26T10:43:55.575Z,13.10
2022-12-26T10:46:30.060Z,13.10
2022-12-26T10:48:31.924Z,13.10
2022-12-26T10:50:35.068Z,13.10
2022-12-26T10:52:40.909Z,13.10
2022-12-26T10:54:51.637Z,13.10
2022-12-26T10:57:13.842Z,13.10
2022-12-26T10:59:22.604Z,13.10
2022-12-26T11:01:41.048Z,13.10
2022-12-26T11:03:55.780Z,13.10
2022-12-26T11:06:08.760Z,13.10
2022-12-26T11:08:49.905Z,13.10
2022-12-26T11:11:07.255Z,13.00
2022-12-26T11:13:20.161Z,13.00
2022-12-26T11:15:47.165Z,13.00
2022-12-26T11:17:52.211Z,13.00
2022-12-26T11:20:22.488Z,13.00
2022-12-26T11:22:29.158Z,13.00
2022-12-26T11:24:30.859Z,13.00
2022-12-26T11:26:32.758Z,13.00
2022-12-26T11:28:39.250Z,13.00
2022-12-26T11:30:46.654Z,13.00
2022-12-26T11:33:02.002Z,13.00
2022-12-26T11:35:06.224Z,13.00
2022-12-26T11:37:28.903Z,13.00
2022-12-26T11:39:36.730Z,13.10
2022-12-26T11:41:40.385Z,13.10
2022-12-26T11:43:43.485Z,13.10
2022-12-26T11:45:50.084Z,13.10
2022-12-26T11:47:54.302Z,13.10
2022-12-26T11:50:05.490Z,13.10
2022-12-26T11:52:44.290Z,13.20
2022-12-26T11:54:50.750Z,13.10
2022-12-26T11:57:03.729Z,13.20
2022-12-26T11:59:22.405Z,13.10
2022-12-26T12:01:25.091Z,13.10
2022-12-26T12:03:49.703Z,13.10
2022-12-26T12:05:55.227Z,13.10
2022-12-26T12:08:36.962Z,13.10
2022-12-26T12:10:48.814Z,13.10
2022-12-26T12:12:55.555Z,13.20
2022-12-26T12:15:14.417Z,13.20
2022-12-26T12:17:40.763Z,13.20
2022-12-26T12:19:53.359Z,13.30
2022-12-26T12:22:00.877Z,13.20
2022-12-26T12:24:21.851Z,13.30
2022-12-26T12:26:49.623Z,13.20
2022-12-26T12:29:13.288Z,13.30
2022-12-26T12:31:17.723Z,13.30
2022-12-26T12:33:33.715Z,13.30
2022-12-26T12:35:46.086Z,13.30
2022-12-26T12:38:24.846Z,13.30
2022-12-26T12:40:44.711Z,13.30
2022-12-26T12:42:54.447Z,13.30
2022-12-26T12:45:35.198Z,13.30
2022-12-26T12:47:53.396Z,13.40
2022-12-26T12:50:18.253Z,13.40
2022-12-26T12:52:46.159Z,13.40
2022-12-26T12:55:21.886Z,13.40
2022-12-26T12:57:36.963Z,13.40
2022-12-26T12:59:46.937Z,13.40
2022-12-26T13:01:57.313Z,13.40
2022-12-26T13:04:13.111Z,13.40
2022-12-26T13:06:25.079Z,13.40
2022-12-26T13:08:47.103Z,13.40
2022-12-26T13:10:59.904Z,13.40
2022-12-26T13:13:17.360Z,13.40
2022-12-26T13:15:26.058Z,13.20
2022-12-26T13:17:40.601Z,13.20
2022-12-26T13:20:04.393Z,13.20
2022-12-26T13:22:13.730Z,13.20
2022-12-26T13:24:41.374Z,13.10
2022-12-26T13:26:47.370Z,13.10
2022-12-26T13:29:15.608Z,13.00
2022-12-26T13:31:18.655Z,13.00
2022-12-26T13:33:20.831Z,12.90
2022-12-26T13:35:59.675Z,12.90
2022-12-26T13:38:03.839Z,12.90
2022-12-26T13:40:16.571Z,12.90
2022-12-26T13:42:43.487Z,12.80
2022-12-26T13:44:53.424Z,12.80
2022-12-26T13:46:57.743Z,12.80
2022-12-26T13:48:59.808Z,12.70
2022-12-26T13:51:04.016Z,12.60
2022-12-26T13:53:25.478Z,12.60
2022-12-26T13:55:41.068Z,12.60
2022-12-26T13:57:44.917Z,12.60
2022-12-26T14:00:08.082Z,12.40
2022-12-26T14:05:26.903Z,12.40
2022-12-26T14:07:50.228Z,12.40
2022-12-26T14:10:15.936Z,12.30
2022-12-26T14:13:04.167Z,12.30
2022-12-26T14:15:29.575Z,12.20
2022-12-26T14:17:59.977Z,12.10
2022-12-26T14:20:04.196Z,12.10
2022-12-26T14:22:29.156Z,12.00
2022-12-26T14:24:34.973Z,12.00
2022-12-26T14:26:55.009Z,11.90
2022-12-26T14:29:03.671Z,11.90
2022-12-26T14:31:26.769Z,11.90
2022-12-26T14:34:02.981Z,11.90
2022-12-26T14:36:48.243Z,11.90
2022-12-26T14:39:21.327Z,12.00
2022-12-26T14:41:42.376Z,12.00
2022-12-26T14:43:46.725Z,11.90
2022-12-26T14:45:53.380Z,11.90
2022-12-26T14:47:55.745Z,11.90
2022-12-26T14:49:57.694Z,11.80
2022-12-26T14:52:24.469Z,11.90
2022-12-26T14:54:26.963Z,11.90
2022-12-26T14:56:34.460Z,11.80
2022-12-26T14:58:39.471Z,11.80
2022-12-26T15:00:41.678Z,11.80
2022-12-26T15:02:47.984Z,11.80
2022-12-26T15:05:03.188Z,11.70
2022-12-26T15:07:42.478Z,11.70
2022-12-26T15:10:15.586Z,11.70
2022-12-26T15:13:01.303Z,11.60
2022-12-26T15:15:24.479Z,11.70
2022-12-26T15:17:57.043Z,11.60
2022-12-26T15:20:15.557Z,11.60
2022-12-26T15:23:01.065Z,11.50
2022-12-26T15:25:21.925Z,11.40
2022-12-26T15:27:38.581Z,11.40
2022-12-26T15:30:13.801Z,11.30
2022-12-26T15:32:28.589Z,11.30
2022-12-26T15:34:50.368Z,11.20
2022-12-26T15:37:17.190Z,11.10
2022-12-26T15:39:50.996Z,11.10
2022-12-26T15:42:14.879Z,11.00
2022-12-26T15:44:49.793Z,10.90
2022-12-26T15:47:17.607Z,10.90
2022-12-26T15:49:33.684Z,10.80
2022-12-26T15:51:56.323Z,10.80
2022-12-26T15:54:38.389Z,10.80
2022-12-26T15:56:51.690Z,10.70
2022-12-26T15:59:18.924Z,10.70
2022-12-26T16:01:43.414Z,10.70
2022-12-26T16:03:53.721Z,10.70
2022-12-26T16:06:32.473Z,10.70
2022-12-26T16:09:15.135Z,10.60
2022-12-26T16:11:18.986Z,10.60
2022-12-26T16:13:23.253Z,10.60
2022-12-26T16:15:25.205Z,10.60
2022-12-26T16:17:28.075Z,10.60
2022-12-26T16:19:29.936Z,10.60
2022-12-26T16:21:50.622Z,10.60
2022-12-26T16:23:55.220Z,10.60
2022-12-26T16:25:59.457Z,10.60
2022-12-26T16:28:01.545Z,10.60
2022-12-26T16:30:13.449Z,10.60
2022-12-26T16:32:20.993Z,10.60
2022-12-26T16:34:22.686Z,10.60
2022-12-26T16:36:29.764Z,10.50
2022-12-26T16:38:32.575Z,10.50
2022-12-26T16:40:47.730Z,10.50
2022-12-26T16:43:20.792Z,10.50
2022-12-26T16:45:23.459Z,10.60
2022-12-26T16:47:28.554Z,10.50
2022-12-26T16:49:32.363Z,10.50
2022-12-26T16:51:38.969Z,10.50
2022-12-26T16:53:43.930Z,10.50
2022-12-26T16:55:50.148Z,10.50
2022-12-26T16:57:56.420Z,10.50
2022-12-26T16:59:59.885Z,10.50
2022-12-26T17:02:01.710Z,10.50
2022-12-26T17:04:21.051Z,10.50
2022-12-26T17:06:34.124Z,10.50
2022-12-26T17:08:39.940Z,10.60
2022-12-26T17:10:48.729Z,10.50
2022-12-26T17:12:51.560Z,10.50
2022-12-26T17:14:55.302Z,10.60
2022-12-26T17:16:58.538Z,10.60
2022-12-26T17:19:16.907Z,10.60
2022-12-26T17:21:31.961Z,10.60
2022-12-26T17:23:36.644Z,10.60
2022-12-26T17:25:38.467Z,10.60
2022-12-26T17:27:40.331Z,10.60
2022-12-26T17:29:50.466Z,10.60
2022-12-26T17:31:52.132Z,10.60
2022-12-26T17:33:57.245Z,10.60
2022-12-26T17:37:08.306Z,10.60
2022-12-26T17:38:36.251Z,10.60
2022-12-26T17:40:40.663Z,10.60
2022-12-26T17:42:52.233Z,10.60
2022-12-26T17:44:54.054Z,10.60
2022-12-26T17:46:55.701Z,10.60
2022-12-26T17:48:57.438Z,10.60
2022-12-26T17:51:04.875Z,10.60
2022-12-26T17:53:26.448Z,10.60
2022-12-26T17:55:30.330Z,10.60
2022-12-26T17:57:32.144Z,10.50
2022-12-26T17:59:36.128Z,10.40
2022-12-26T18:01:38.006Z,10.40
2022-12-26T18:03:39.823Z,10.30
2022-12-26T18:05:45.907Z,10.30
2022-12-26T18:07:51.758Z,10.30
2022-12-26T18:09:54.138Z,10.20
2022-12-26T18:11:59.516Z,10.20
2022-12-26T18:14:01.187Z,10.10
2022-12-26T18:16:03.903Z,10.10
2022-12-26T18:18:05.807Z,10.10
2022-12-26T18:20:08.812Z,10.00
2022-12-26T18:22:15.561Z,9.90
2022-12-26T18:24:17.299Z,10.00
2022-12-26T18:26:25.037Z,9.90
2022-12-26T18:28:27.841Z,9.90
2022-12-26T18:30:29.543Z,9.90
2022-12-26T18:32:33.365Z,9.90
2022-12-26T18:34:37.162Z,9.80
2022-12-26T18:36:41.171Z,9.80
2022-12-26T18:38:43.710Z,9.80
2022-12-26T18:40:49.039Z,9.80
2022-12-26T18:42:50.752Z,9.80
2022-12-26T18:44:54.485Z,9.70
2022-12-26T18:46:57.611Z,9.70
2022-12-26T18:49:01.815Z,9.70
2022-12-26T18:51:04.762Z,9.70
2022-12-26T18:53:06.587Z,9.80
2022-12-26T18:55:09.111Z,9.60
2022-12-26T18:57:17.506Z,9.60
2022-12-26T18:59:19.176Z,9.60
2022-12-26T19:01:22.028Z,9.60
2022-12-26T19:03:23.845Z,9.60
2022-12-26T19:05:31.417Z,9.50
2022-12-26T19:07:33.135Z,9.50
2022-12-26T19:09:37.283Z,9.40
2022-12-26T19:11:39.413Z,9.40
2022-12-26T19:13:41.713Z,9.40
2022-12-26T19:15:48.460Z,9.30
2022-12-26T19:17:50.171Z,9.30
2022-12-26T19:19:51.977Z,9.30
2022-12-26T19:21:53.624Z,9.20
2022-12-26T19:23:55.370Z,9.20
2022-12-26T19:25:57.091Z,9.10
2022-12-26T19:27:58.866Z,9.10
2022-12-26T19:30:00.915Z,9.00
2022-12-26T19:32:03.551Z,9.00
2022-12-26T19:34:05.329Z,9.00
2022-12-26T19:36:08.289Z,8.90
2022-12-26T19:38:10.070Z,8.90
2022-12-26T19:40:12.773Z,8.80
2022-12-26T19:42:14.550Z,8.80
2022-12-26T19:44:19.231Z,8.80
2022-12-26T19:46:21.414Z,8.70
2022-12-26T19:48:23.102Z,8.70
2022-12-26T19:50:27.214Z,8.70
2022-12-26T19:52:29.229Z,8.60
2022-12-26T19:54:33.794Z,8.60
2022-12-26T19:56:35.446Z,8.60
2022-12-26T19:58:40.920Z,8.60
2022-12-26T20:00:43.597Z,8.50
2022-12-26T20:02:48.960Z,8.50
2022-12-26T20:04:50.771Z,8.50
2022-12-26T20:06:59.988Z,8.50
2022-12-26T20:09:08.824Z,8.50
2022-12-26T20:11:13.955Z,8.50
2022-12-26T20:13:17.747Z,8.40
2022-12-26T20:15:19.603Z,8.40
2022-12-26T20:17:21.865Z,8.30
2022-12-26T20:19:25.658Z,8.30
2022-12-26T20:21:27.645Z,8.30
2022-12-26T20:23:29.552Z,8.30
2022-12-26T20:25:31.267Z,8.20
2022-12-26T20:27:33.032Z,8.20
2022-12-26T20:29:34.906Z,8.10
2022-12-26T20:31:40.127Z,8.10
2022-12-26T20:33:44.565Z,8.10
2022-12-26T20:35:48.926Z,8.00
2022-12-26T20:37:53.506Z,8.00
2022-12-26T20:39:59.048Z,7.90
2022-12-26T20:42:00.826Z,7.90
2022-12-26T20:44:02.573Z,7.90
2022-12-26T20:46:15.164Z,7.80
2022-12-26T20:48:16.866Z,7.80
2022-12-26T20:50:19.330Z,7.80
2022-12-26T20:52:21.263Z,7.70
2022-12-26T20:54:25.629Z,7.70
2022-12-26T20:56:28.214Z,7.70
2022-12-26T20:58:33.138Z,7.60
2022-12-26T21:00:35.250Z,7.60
2022-12-26T21:02:37.191Z,7.60
2022-12-26T21:04:39.141Z,7.60
2022-12-26T21:06:41.024Z,7.50
2022-12-26T21:08:44.462Z,7.50
2022-12-26T21:10:51.815Z,7.50
2022-12-26T21:12:53.530Z,7.50
2022-12-26T21:14:55.456Z,7.40
2022-12-26T21:16:58.744Z,7.40
2022-12-26T21:19:01.053Z,7.40
2022-12-26T21:21:13.198Z,7.30
2022-12-26T21:23:15.112Z,7.40
2022-12-26T21:25:17.038Z,7.30
2022-12-26T21:27:19.141Z,7.30
2022-12-26T21:29:32.330Z,7.30
2022-12-26T21:31:37.365Z,7.30
2022-12-26T21:33:44.502Z,7.20
2022-12-26T21:35:50.736Z,7.20
2022-12-26T21:37:52.483Z,7.20
2022-12-26T21:39:54.178Z,7.20
2022-12-26T21:41:56.792Z,7.20
2022-12-26T21:43:58.834Z,7.10
2022-12-26T21:46:06.304Z,7.10
2022-12-26T21:48:08.488Z,7.10
2022-12-26T21:50:10.338Z,7.10
2022-12-26T21:52:11.980Z,7.10
2022-12-26T21:54:32.394Z,7.00
2022-12-26T21:56:35.560Z,7.00
2022-12-26T21:58:56.324Z,7.00
2022-12-26T22:00:58.044Z,7.00
2022-12-26T22:03:18.357Z,7.00
2022-12-26T22:05:24.800Z,7.00
2022-12-26T22:07:27.419Z,7.00
2022-12-26T22:09:29.119Z,6.90
2022-12-26T22:11:49.746Z,6.90
2022-12-26T22:13:51.426Z,6.90
2022-12-26T22:16:07.709Z,6.90
2022-12-26T22:18:10.284Z,6.90
2022-12-26T22:20:11.903Z,6.90
2022-12-26T22:22:13.620Z,6.90
2022-12-26T22:24:15.302Z,6.80
2022-12-26T22:26:17.876Z,6.80
2022-12-26T22:28:23.428Z,6.80
2022-12-26T22:30:25.539Z,6.80
2022-12-26T22:32:27.190Z,6.80
2022-12-26T22:34:28.892Z,6.80
2022-12-26T22:36:35.843Z,6.80
2022-12-26T22:38:40.093Z,6.80
2022-12-26T22:40:42.395Z,6.80
2022-12-26T22:42:44.065Z,6.80
2022-12-26T22:44:45.700Z,6.80
2022-12-26T22:46:47.418Z,6.80
2022-12-26T22:48:49.396Z,6.80
2022-12-26T22:50:54.242Z,6.80
2022-12-26T22:52:55.960Z,6.80
2022-12-26T22:54:57.690Z,6.80
2022-12-26T22:57:04.692Z,6.80
2022-12-26T22:59:06.570Z,6.70
2022-12-26T23:01:17.953Z,6.80
2022-12-26T23:03:20.481Z,6.80
2022-12-26T23:05:22.383Z,6.70
2022-12-26T23:07:24.342Z,6.70
2022-12-26T23:09:26.509Z,6.70
2022-12-26T23:11:35.153Z,6.70
2022-12-26T23:13:40.732Z,6.70
2022-12-26T23:16:03.480Z,6.70
2022-12-26T23:18:40.254Z,6.70
2022-12-26T23:21:03.482Z,6.70
2022-12-26T23:23:08.511Z,6.60
2022-12-26T23:25:16.388Z,6.60
2022-12-26T23:27:36.727Z,6.70
2022-12-26T23:29:56.890Z,6.60
2022-12-26T23:31:58.799Z,6.60
2022-12-26T23:34:02.874Z,6.60
2022-12-26T23:36:04.990Z,6.60
2022-12-26T23:38:06.904Z,6.60
2022-12-26T23:40:10.986Z,6.70
2022-12-26T23:42:12.687Z,6.60
2022-12-26T23:44:14.523Z,6.60
2022-12-26T23:46:16.194Z,6.60
2022-12-26T23:48:17.876Z,6.60
2022-12-26T23:50:19.583Z,6.60
2022-12-26T23:52:25.368Z,6.60
2022-12-26T23:54:30.102Z,6.50
2022-12-26T23:56:31.746Z,6.60
2022-12-26T23:58:36.108Z,6.60
